createdAt,value
2023-02-02T00:00:42.678Z,1009.36
2023-02-02T00:01:42.620Z,1009.34
2023-02-02T00:02:42.641Z,1009.36
2023-02-02T00:03:42.663Z,1009.38
2023-02-02T00:04:42.600Z,1009.35
2023-02-02T00:05:42.569Z,1009.44
2023-02-02T00:06:42.601Z,1009.44
2023-02-02T00:07:42.555Z,1009.44
2023-02-02T00:08:42.723Z,1009.45
2023-02-02T00:09:42.679Z,1009.45
2023-02-02T00:10:42.589Z,1009.40
2023-02-02T00:11:42.526Z,1009.33
2023-02-02T00:12:42.576Z,1009.49
2023-02-02T00:13:42.510Z,1009.42
2023-02-02T00:14:42.568Z,1009.40
2023-02-02T00:15:42.509Z,1009.47
2023-02-02T00:16:42.497Z,1009.43
2023-02-02T00:17:42.475Z,1009.44
2023-02-02T00:18:42.468Z,1009.45
2023-02-02T00:19:42.451Z,1009.48
2023-02-02T00:20:42.447Z,1009.46
2023-02-02T00:21:42.402Z,1009.50
2023-02-02T00:22:42.385Z,1009.48
2023-02-02T00:23:42.373Z,1009.73
2023-02-02T00:24:42.395Z,1009.49
2023-02-02T00:25:42.362Z,1009.48
2023-02-02T00:26:42.572Z,1009.47
2023-02-02T00:27:42.361Z,1009.58
2023-02-02T00:28:42.355Z,1009.49
2023-02-02T00:29:42.417Z,1009.50
2023-02-02T00:30:42.372Z,1009.46
2023-02-02T00:31:42.373Z,1009.53
2023-02-02T00:32:42.272Z,1009.57
2023-02-02T00:33:42.277Z,1009.51
2023-02-02T00:34:42.267Z,1009.51
2023-02-02T00:35:42.262Z,1009.54
2023-02-02T00:36:42.233Z,1009.44
2023-02-02T00:37:42.251Z,1009.46
2023-02-02T00:38:42.251Z,1009.49
2023-02-02T00:39:42.239Z,1009.48
2023-02-02T00:40:42.194Z,1009.46
2023-02-02T00:41:42.197Z,1009.49
2023-02-02T00:42:42.164Z,1009.42
2023-02-02T00:43:42.483Z,1009.76
2023-02-02T00:44:42.186Z,1009.45
2023-02-02T00:45:42.155Z,1009.55
2023-02-02T00:46:42.137Z,1009.52
2023-02-02T00:47:42.126Z,1009.58
2023-02-02T00:48:42.126Z,1009.52
2023-02-02T00:49:42.103Z,1009.55
2023-02-02T00:50:42.070Z,1009.47
2023-02-02T00:51:42.098Z,1009.50
2023-02-02T00:52:42.075Z,1009.51
2023-02-02T00:53:42.072Z,1009.47
2023-02-02T00:54:42.049Z,1009.60
2023-02-02T00:55:42.062Z,1009.54
2023-02-02T00:56:42.026Z,1009.61
2023-02-02T00:57:42.031Z,1009.64
2023-02-02T00:58:42.009Z,1009.67
2023-02-02T00:59:42.024Z,1009.53
2023-02-02T01:00:42.044Z,1009.73
2023-02-02T01:01:41.988Z,1009.79
2023-02-02T01:02:41.945Z,1009.67
2023-02-02T01:03:41.949Z,1009.70
2023-02-02T01:04:42.075Z,1009.63
2023-02-02T01:05:41.971Z,1009.71
2023-02-02T01:06:41.925Z,1009.65
2023-02-02T01:07:41.936Z,1009.69
2023-02-02T01:08:41.930Z,1009.66
2023-02-02T01:09:41.887Z,1009.72
2023-02-02T01:10:41.862Z,1009.72
2023-02-02T01:11:41.866Z,1009.52
2023-02-02T01:12:41.856Z,1009.75
2023-02-02T01:13:41.855Z,1009.80
2023-02-02T01:14:41.864Z,1009.75
2023-02-02T01:15:41.827Z,1009.74
2023-02-02T01:16:41.880Z,1009.74
2023-02-02T01:17:41.825Z,1009.89
2023-02-02T01:18:41.790Z,1009.76
2023-02-02T01:19:41.805Z,1009.84
2023-02-02T01:20:41.800Z,1009.77
2023-02-02T01:21:41.818Z,1009.80
2023-02-02T01:22:41.745Z,1009.80
2023-02-02T01:23:41.751Z,1009.80
2023-02-02T01:24:41.737Z,1009.80
2023-02-02T01:25:41.730Z,1009.89
2023-02-02T01:26:41.804Z,1009.75
2023-02-02T01:27:43.164Z,1009.88
2023-02-02T01:28:41.685Z,1009.89
2023-02-02T01:29:41.743Z,1009.75
2023-02-02T01:30:41.731Z,1009.88
2023-02-02T01:31:41.703Z,1009.85
2023-02-02T01:32:41.642Z,1009.84
2023-02-02T01:33:41.679Z,1009.82
2023-02-02T01:34:41.632Z,1009.95
2023-02-02T01:35:41.639Z,1009.79
2023-02-02T01:36:41.606Z,1009.89
2023-02-02T01:37:41.623Z,1009.89
2023-02-02T01:38:41.560Z,1009.85
2023-02-02T01:39:41.588Z,1009.86
2023-02-02T01:40:41.575Z,1009.93
2023-02-02T01:41:41.572Z,1009.91
2023-02-02T01:42:41.533Z,1010.01
2023-02-02T01:43:41.559Z,1009.94
2023-02-02T01:44:41.504Z,1009.89
2023-02-02T01:45:41.685Z,1009.94
2023-02-02T01:46:41.542Z,1009.98
2023-02-02T01:47:41.527Z,1009.97
2023-02-02T01:48:41.475Z,1009.97
2023-02-02T01:49:41.490Z,1009.94
2023-02-02T01:50:41.454Z,1010.00
2023-02-02T01:51:41.453Z,1009.97
2023-02-02T01:52:41.451Z,1010.04
2023-02-02T01:53:41.414Z,1010.05
2023-02-02T01:54:41.417Z,1010.06
2023-02-02T01:55:41.441Z,1010.05
2023-02-02T01:56:41.417Z,1010.02
2023-02-02T01:57:41.398Z,1010.01
2023-02-02T01:58:41.406Z,1010.05
2023-02-02T01:59:41.346Z,1010.08
2023-02-02T02:00:41.354Z,1010.18
2023-02-02T02:01:41.334Z,1010.13
2023-02-02T02:02:41.389Z,1010.03
2023-02-02T02:03:41.371Z,1010.02
2023-02-02T02:04:41.327Z,1010.05
2023-02-02T02:05:41.315Z,1010.03
2023-02-02T02:06:41.344Z,1010.02
2023-02-02T02:07:41.295Z,1010.06
2023-02-02T02:08:41.256Z,1010.12
2023-02-02T02:09:41.260Z,1010.20
2023-02-02T02:10:41.246Z,1010.37
2023-02-02T02:11:41.287Z,1010.08
2023-02-02T02:12:41.203Z,1010.15
2023-02-02T02:13:41.218Z,1010.18
2023-02-02T02:14:41.227Z,1010.07
2023-02-02T02:15:49.746Z,1010.08
2023-02-02T02:16:42.972Z,1010.09
2023-02-02T02:17:41.932Z,1010.13
2023-02-02T02:18:41.170Z,1010.28
2023-02-02T02:19:41.135Z,1010.20
2023-02-02T02:20:41.113Z,1010.16
2023-02-02T02:21:41.128Z,1010.14
2023-02-02T02:22:41.103Z,1010.14
2023-02-02T02:23:41.084Z,1010.24
2023-02-02T02:24:41.113Z,1010.22
2023-02-02T02:25:41.097Z,1010.25
2023-02-02T02:26:41.123Z,1010.36
2023-02-02T02:27:41.050Z,1010.27
2023-02-02T02:28:41.052Z,1010.33
2023-02-02T02:29:41.046Z,1010.36
2023-02-02T02:30:41.098Z,1010.35
2023-02-02T02:31:41.096Z,1010.38
2023-02-02T02:32:41.017Z,1010.38
2023-02-02T02:33:41.002Z,1010.33
2023-02-02T02:34:40.965Z,1010.35
2023-02-02T02:35:40.963Z,1010.33
2023-02-02T02:36:40.929Z,1010.31
2023-02-02T02:37:40.944Z,1010.24
2023-02-02T02:38:40.939Z,1010.35
2023-02-02T02:39:40.924Z,1010.31
2023-02-02T02:40:40.909Z,1010.22
2023-02-02T02:41:40.923Z,1010.33
2023-02-02T02:42:40.867Z,1010.23
2023-02-02T02:43:40.879Z,1010.30
2023-02-02T02:44:40.865Z,1010.25
2023-02-02T02:45:40.852Z,1010.32
2023-02-02T02:46:40.909Z,1010.22
2023-02-02T02:47:40.837Z,1010.25
2023-02-02T02:48:49.311Z,1010.26
2023-02-02T02:49:49.387Z,1010.21
2023-02-02T02:50:40.803Z,1010.26
2023-02-02T02:51:40.817Z,1010.22
2023-02-02T02:52:40.772Z,1010.36
2023-02-02T02:53:40.788Z,1010.20
2023-02-02T02:54:40.758Z,1010.27
2023-02-02T02:55:40.773Z,1010.35
2023-02-02T02:56:40.756Z,1010.29
2023-02-02T02:57:40.742Z,1010.27
2023-02-02T02:58:49.223Z,1010.29
2023-02-02T02:59:40.700Z,1010.24
2023-02-02T03:00:40.689Z,1010.24
2023-02-02T03:01:40.722Z,1010.24
2023-02-02T03:02:40.709Z,1010.29
2023-02-02T03:03:40.686Z,1010.35
2023-02-02T03:04:40.650Z,1010.45
2023-02-02T03:05:40.694Z,1010.38
2023-02-02T03:06:40.623Z,1010.36
2023-02-02T03:07:40.633Z,1010.33
2023-02-02T03:08:40.597Z,1010.19
2023-02-02T03:09:40.612Z,1010.39
2023-02-02T03:10:40.564Z,1010.42
2023-02-02T03:11:40.578Z,1010.38
2023-02-02T03:12:40.537Z,1010.35
2023-02-02T03:13:40.551Z,1010.37
2023-02-02T03:14:40.559Z,1010.37
2023-02-02T03:15:40.589Z,1010.47
2023-02-02T03:16:40.554Z,1010.52
2023-02-02T03:17:40.573Z,1010.50
2023-02-02T03:18:40.493Z,1010.32
2023-02-02T03:19:40.498Z,1010.37
2023-02-02T03:20:40.494Z,1010.39
2023-02-02T03:21:40.469Z,1010.39
2023-02-02T03:22:40.455Z,1010.42
2023-02-02T03:23:40.471Z,1010.56
2023-02-02T03:24:40.436Z,1010.37
2023-02-02T03:25:40.425Z,1010.40
2023-02-02T03:26:40.447Z,1010.36
2023-02-02T03:27:40.418Z,1010.36
2023-02-02T03:28:40.377Z,1010.38
2023-02-02T03:29:40.381Z,1010.54
2023-02-02T03:30:40.442Z,1010.40
2023-02-02T03:31:40.416Z,1010.47
2023-02-02T03:32:40.343Z,1010.40
2023-02-02T03:33:40.358Z,1010.52
2023-02-02T03:34:40.320Z,1010.46
2023-02-02T03:35:40.331Z,1010.53
2023-02-02T03:36:40.309Z,1010.57
2023-02-02T03:37:40.313Z,1010.62
2023-02-02T03:38:40.288Z,1010.63
2023-02-02T03:39:40.278Z,1010.55
2023-02-02T03:40:40.261Z,1010.55
2023-02-02T03:41:40.264Z,1010.60
2023-02-02T03:42:40.224Z,1010.30
2023-02-02T03:43:40.232Z,1010.59
2023-02-02T03:44:40.268Z,1010.57
2023-02-02T03:45:40.218Z,1010.51
2023-02-02T03:46:40.279Z,1010.55
2023-02-02T03:47:40.196Z,1010.63
2023-02-02T03:48:40.239Z,1010.56
2023-02-02T03:49:40.172Z,1010.55
2023-02-02T03:50:40.155Z,1010.57
2023-02-02T03:51:40.158Z,1010.65
2023-02-02T03:52:40.124Z,1010.57
2023-02-02T03:53:40.127Z,1010.61
2023-02-02T03:54:40.248Z,1010.57
2023-02-02T03:55:40.121Z,1010.67
2023-02-02T03:56:40.075Z,1010.58
2023-02-02T03:57:40.093Z,1010.56
2023-02-02T03:58:40.064Z,1010.69
2023-02-02T03:59:40.067Z,1010.55
2023-02-02T04:00:40.065Z,1010.59
2023-02-02T04:01:40.115Z,1010.63
2023-02-02T04:02:40.068Z,1010.72
2023-02-02T04:03:40.037Z,1010.67
2023-02-02T04:04:39.993Z,1010.65
2023-02-02T04:05:40.009Z,1010.73
2023-02-02T04:06:39.963Z,1010.69
2023-02-02T04:07:39.982Z,1010.70
2023-02-02T04:08:39.972Z,1010.70
2023-02-02T04:09:39.971Z,1010.70
2023-02-02T04:10:39.939Z,1010.68
2023-02-02T04:11:40.193Z,1010.76
2023-02-02T04:12:39.919Z,1010.78
2023-02-02T04:13:39.995Z,1010.77
2023-02-02T04:14:39.898Z,1010.76
2023-02-02T04:15:39.891Z,1010.69
2023-02-02T04:16:39.889Z,1010.77
2023-02-02T04:17:39.886Z,1010.77
2023-02-02T04:18:39.850Z,1010.80
2023-02-02T04:19:39.900Z,1010.78
2023-02-02T04:20:39.827Z,1010.72
2023-02-02T04:21:39.818Z,1010.75
2023-02-02T04:22:39.823Z,1010.75
2023-02-02T04:23:39.834Z,1010.82
2023-02-02T04:24:39.793Z,1010.77
2023-02-02T04:25:39.798Z,1010.82
2023-02-02T04:26:39.811Z,1010.82
2023-02-02T04:27:39.854Z,1010.85
2023-02-02T04:28:39.728Z,1010.86
2023-02-02T04:29:39.738Z,1010.85
2023-02-02T04:30:39.753Z,1010.86
2023-02-02T04:31:39.759Z,1010.89
2023-02-02T04:32:39.714Z,1010.83
2023-02-02T04:33:39.699Z,1010.84
2023-02-02T04:34:39.696Z,1010.85
2023-02-02T04:35:39.664Z,1010.80
2023-02-02T04:36:39.680Z,1010.79
2023-02-02T04:37:39.652Z,1010.85
2023-02-02T04:38:39.653Z,1010.84
2023-02-02T04:39:39.641Z,1010.91
2023-02-02T04:40:39.666Z,1010.91
2023-02-02T04:41:39.619Z,1010.94
2023-02-02T04:42:39.604Z,1010.91
2023-02-02T04:43:39.595Z,1010.83
2023-02-02T04:44:39.584Z,1010.90
2023-02-02T04:45:39.603Z,1010.86
2023-02-02T04:46:39.574Z,1010.86
2023-02-02T04:47:39.539Z,1010.83
2023-02-02T04:48:39.530Z,1010.83
2023-02-02T04:49:39.512Z,1010.89
2023-02-02T04:50:39.744Z,1010.82
2023-02-02T04:51:39.512Z,1010.96
2023-02-02T04:52:39.486Z,1010.87
2023-02-02T04:53:39.497Z,1010.85
2023-02-02T04:54:39.474Z,1010.85
2023-02-02T04:55:39.454Z,1010.86
2023-02-02T04:56:39.460Z,1010.90
2023-02-02T04:57:39.424Z,1010.94
2023-02-02T04:58:39.427Z,1010.88
2023-02-02T04:59:42.189Z,1010.95
2023-02-02T05:00:39.417Z,1010.83
2023-02-02T05:01:39.384Z,1010.95
2023-02-02T05:02:39.385Z,1010.87
2023-02-02T05:03:39.408Z,1010.85
2023-02-02T05:04:39.409Z,1010.90
2023-02-02T05:05:39.339Z,1010.86
2023-02-02T05:06:39.347Z,1010.89
2023-02-02T05:07:39.326Z,1010.86
2023-02-02T05:08:39.326Z,1010.89
2023-02-02T05:09:39.306Z,1010.92
2023-02-02T05:10:39.303Z,1010.93
2023-02-02T05:11:39.276Z,1010.83
2023-02-02T05:12:39.308Z,1010.82
2023-02-02T05:13:39.245Z,1010.83
2023-02-02T05:14:39.271Z,1010.93
2023-02-02T05:15:39.233Z,1010.93
2023-02-02T05:16:39.313Z,1010.85
2023-02-02T05:17:39.201Z,1010.83
2023-02-02T05:18:39.268Z,1010.83
2023-02-02T05:19:39.194Z,1010.85
2023-02-02T05:20:39.238Z,1010.82
2023-02-02T05:21:39.215Z,1010.82
2023-02-02T05:22:39.174Z,1010.83
2023-02-02T05:23:39.489Z,1010.86
2023-02-02T05:24:39.145Z,1010.95
2023-02-02T05:25:39.119Z,1010.86
2023-02-02T05:26:39.206Z,1010.83
2023-02-02T05:27:39.112Z,1010.89
2023-02-02T05:28:39.116Z,1010.90
2023-02-02T05:29:39.096Z,1010.94
2023-02-02T05:30:39.119Z,1010.86
2023-02-02T05:31:39.116Z,1010.84
2023-02-02T05:32:39.072Z,1010.85
2023-02-02T05:33:39.039Z,1010.90
2023-02-02T05:34:39.053Z,1010.98
2023-02-02T05:35:39.035Z,1010.90
2023-02-02T05:36:39.019Z,1010.95
2023-02-02T05:37:39.024Z,1010.92
2023-02-02T05:38:39.017Z,1010.92
2023-02-02T05:39:39.036Z,1010.90
2023-02-02T05:40:38.979Z,1010.94
2023-02-02T05:41:38.957Z,1010.91
2023-02-02T05:42:38.969Z,1010.92
2023-02-02T05:43:38.959Z,1010.93
2023-02-02T05:44:38.925Z,1011.01
2023-02-02T05:45:39.385Z,1010.94
2023-02-02T05:46:38.915Z,1010.98
2023-02-02T05:47:38.905Z,1010.89
2023-02-02T05:48:38.902Z,1010.90
2023-02-02T05:49:38.885Z,1010.94
2023-02-02T05:50:38.870Z,1010.95
2023-02-02T05:51:39.789Z,1010.96
2023-02-02T05:52:39.059Z,1010.98
2023-02-02T05:53:38.824Z,1010.96
2023-02-02T05:54:39.094Z,1010.99
2023-02-02T05:55:40.264Z,1010.99
2023-02-02T05:56:38.810Z,1011.05
2023-02-02T05:57:39.317Z,1011.05
2023-02-02T05:58:38.795Z,1011.15
2023-02-02T05:59:38.764Z,1011.18
2023-02-02T06:00:38.830Z,1011.20
2023-02-02T06:01:38.836Z,1011.19
2023-02-02T06:02:38.761Z,1011.18
2023-02-02T06:03:38.846Z,1011.18
2023-02-02T06:04:38.705Z,1011.21
2023-02-02T06:05:38.726Z,1011.21
2023-02-02T06:06:38.701Z,1011.27
2023-02-02T06:07:39.000Z,1011.25
2023-02-02T06:08:38.655Z,1011.28
2023-02-02T06:09:38.646Z,1011.35
2023-02-02T06:10:38.650Z,1011.30
2023-02-02T06:11:47.164Z,1011.31
2023-02-02T06:12:48.199Z,1011.33
2023-02-02T06:13:38.610Z,1011.32
2023-02-02T06:14:38.622Z,1011.33
2023-02-02T06:15:38.629Z,1011.29
2023-02-02T06:16:38.578Z,1011.36
2023-02-02T06:17:38.578Z,1011.42
2023-02-02T06:18:38.571Z,1011.45
2023-02-02T06:19:38.876Z,1011.51
2023-02-02T06:20:38.551Z,1011.48
2023-02-02T06:21:38.565Z,1011.42
2023-02-02T06:22:38.528Z,1011.49
2023-02-02T06:23:38.515Z,1011.48
2023-02-02T06:24:38.598Z,1011.47
2023-02-02T06:25:38.474Z,1011.35
2023-02-02T06:26:38.485Z,1011.52
2023-02-02T06:27:38.449Z,1011.50
2023-02-02T06:28:38.453Z,1011.52
2023-02-02T06:29:38.440Z,1011.51
2023-02-02T06:30:38.501Z,1011.51
2023-02-02T06:31:38.502Z,1011.55
2023-02-02T06:32:38.410Z,1011.57
2023-02-02T06:33:38.399Z,1011.54
2023-02-02T06:34:38.400Z,1011.56
2023-02-02T06:35:38.373Z,1011.55
2023-02-02T06:36:38.369Z,1011.60
2023-02-02T06:37:38.340Z,1011.61
2023-02-02T06:38:38.355Z,1011.58
2023-02-02T06:39:38.327Z,1011.64
2023-02-02T06:40:38.329Z,1011.71
2023-02-02T06:41:38.311Z,1011.71
2023-02-02T06:42:38.301Z,1011.60
2023-02-02T06:43:38.280Z,1011.78
2023-02-02T06:44:38.425Z,1011.77
2023-02-02T06:45:38.277Z,1011.74
2023-02-02T06:46:38.349Z,1011.83
2023-02-02T06:47:38.236Z,1011.79
2023-02-02T06:48:38.236Z,1011.80
2023-02-02T06:49:40.072Z,1011.86
2023-02-02T06:50:38.451Z,1011.86
2023-02-02T06:51:38.209Z,1011.83
2023-02-02T06:52:38.204Z,1011.90
2023-02-02T06:53:38.187Z,1011.89
2023-02-02T06:54:38.393Z,1011.73
2023-02-02T06:55:38.170Z,1011.88
2023-02-02T06:56:38.144Z,1011.89
2023-02-02T06:57:38.289Z,1011.86
2023-02-02T06:58:38.142Z,1011.87
2023-02-02T06:59:38.309Z,1011.81
2023-02-02T07:00:38.242Z,1011.88
2023-02-02T07:01:38.178Z,1011.84
2023-02-02T07:02:38.158Z,1011.84
2023-02-02T07:03:38.071Z,1011.87
2023-02-02T07:04:38.073Z,1011.87
2023-02-02T07:05:38.035Z,1011.82
2023-02-02T07:06:38.049Z,1011.89
2023-02-02T07:07:38.054Z,1011.83
2023-02-02T07:08:38.032Z,1011.88
2023-02-02T07:09:38.041Z,1011.89
2023-02-02T07:11:13.278Z,1011.95
2023-02-02T07:11:40.409Z,1011.95
2023-02-02T07:12:37.990Z,1011.88
2023-02-02T07:13:37.970Z,1011.94
2023-02-02T07:14:37.956Z,1011.95
2023-02-02T07:15:38.058Z,1011.97
2023-02-02T07:16:37.932Z,1011.99
2023-02-02T07:17:37.921Z,1011.97
2023-02-02T07:18:37.903Z,1011.94
2023-02-02T07:19:37.915Z,1011.98
2023-02-02T07:20:37.921Z,1011.99
2023-02-02T07:21:37.924Z,1012.07
2023-02-02T07:22:37.906Z,1012.03
2023-02-02T07:23:37.850Z,1011.99
2023-02-02T07:24:37.857Z,1012.03
2023-02-02T07:25:37.835Z,1011.97
2023-02-02T07:26:37.837Z,1012.00
2023-02-02T07:27:37.822Z,1011.99
2023-02-02T07:28:37.873Z,1012.02
2023-02-02T07:29:37.783Z,1012.08
2023-02-02T07:30:37.854Z,1012.07
2023-02-02T07:31:37.779Z,1012.03
2023-02-02T07:32:37.773Z,1012.07
2023-02-02T07:33:37.739Z,1012.04
2023-02-02T07:34:37.767Z,1012.11
2023-02-02T07:35:37.838Z,1012.08
2023-02-02T07:36:37.758Z,1012.12
2023-02-02T07:37:39.990Z,1012.07
2023-02-02T07:38:37.713Z,1012.11
2023-02-02T07:39:37.717Z,1012.06
2023-02-02T07:40:37.750Z,1012.08
2023-02-02T07:41:37.685Z,1012.15
2023-02-02T07:42:37.670Z,1012.16
2023-02-02T07:43:37.670Z,1012.12
2023-02-02T07:44:37.672Z,1012.21
2023-02-02T07:45:38.167Z,1012.16
2023-02-02T07:46:37.648Z,1012.20
2023-02-02T07:47:37.602Z,1012.19
2023-02-02T07:48:37.614Z,1012.20
2023-02-02T07:49:37.561Z,1012.20
2023-02-02T07:50:37.562Z,1012.18
2023-02-02T07:51:39.910Z,1012.20
2023-02-02T07:52:37.569Z,1012.24
2023-02-02T07:53:37.556Z,1012.22
2023-02-02T07:54:37.537Z,1012.21
2023-02-02T07:55:37.686Z,1012.23
2023-02-02T07:56:37.517Z,1012.21
2023-02-02T07:57:37.507Z,1012.25
2023-02-02T07:58:37.521Z,1012.28
2023-02-02T07:59:37.476Z,1012.28
2023-02-02T08:00:37.612Z,1012.28
2023-02-02T08:01:37.662Z,1012.29
2023-02-02T08:02:37.493Z,1012.24
2023-02-02T08:03:37.428Z,1012.30
2023-02-02T08:04:37.419Z,1012.28
2023-02-02T08:05:37.415Z,1012.23
2023-02-02T08:06:37.406Z,1012.27
2023-02-02T08:07:37.394Z,1012.29
2023-02-02T08:08:37.404Z,1012.30
2023-02-02T08:09:37.365Z,1012.30
2023-02-02T08:10:37.387Z,1012.28
2023-02-02T08:11:37.358Z,1012.26
2023-02-02T08:12:37.341Z,1012.31
2023-02-02T08:13:37.319Z,1012.33
2023-02-02T08:14:37.333Z,1012.34
2023-02-02T08:15:37.294Z,1012.35
2023-02-02T08:16:37.389Z,1012.32
2023-02-02T08:17:37.281Z,1012.40
2023-02-02T08:18:37.307Z,1012.43
2023-02-02T08:19:37.231Z,1012.47
2023-02-02T08:20:37.249Z,1012.51
2023-02-02T08:21:37.213Z,1012.54
2023-02-02T08:22:37.229Z,1012.55
2023-02-02T08:23:37.213Z,1012.49
2023-02-02T08:24:37.193Z,1012.53
2023-02-02T08:25:37.194Z,1012.57
2023-02-02T08:26:37.272Z,1012.54
2023-02-02T08:27:38.036Z,1012.57
2023-02-02T08:28:37.156Z,1012.57
2023-02-02T08:29:37.168Z,1012.59
2023-02-02T08:30:37.166Z,1012.65
2023-02-02T08:31:37.147Z,1012.58
2023-02-02T08:32:37.099Z,1012.63
2023-02-02T08:33:38.544Z,1012.68
2023-02-02T08:34:37.117Z,1012.70
2023-02-02T08:35:37.096Z,1012.67
2023-02-02T08:36:37.056Z,1012.69
2023-02-02T08:37:37.072Z,1012.68
2023-02-02T08:38:37.062Z,1012.69
2023-02-02T08:39:37.035Z,1012.74
2023-02-02T08:40:37.090Z,1012.72
2023-02-02T08:41:37.062Z,1012.78
2023-02-02T08:42:37.008Z,1012.80
2023-02-02T08:43:36.985Z,1012.82
2023-02-02T08:45:59.754Z,1012.81
2023-02-02T08:46:01.351Z,1012.80
2023-02-02T08:46:38.035Z,1012.86
2023-02-02T08:47:36.965Z,1012.83
2023-02-02T08:48:36.946Z,1012.89
2023-02-02T08:49:36.944Z,1012.85
2023-02-02T08:50:36.975Z,1012.83
2023-02-02T08:51:36.930Z,1012.83
2023-02-02T08:52:36.890Z,1012.82
2023-02-02T08:53:36.906Z,1012.78
2023-02-02T08:54:36.902Z,1012.78
2023-02-02T08:55:36.894Z,1012.77
2023-02-02T08:56:36.935Z,1012.76
2023-02-02T08:57:37.072Z,1012.81
2023-02-02T08:58:36.832Z,1012.81
2023-02-02T08:59:36.844Z,1012.82
2023-02-02T09:00:36.826Z,1012.81
2023-02-02T09:01:36.819Z,1012.87
2023-02-02T09:02:36.806Z,1012.94
2023-02-02T09:03:36.793Z,1012.95
2023-02-02T09:04:36.772Z,1012.95
2023-02-02T09:05:36.767Z,1012.93
2023-02-02T09:06:36.763Z,1012.95
2023-02-02T09:07:36.746Z,1012.91
2023-02-02T09:08:36.732Z,1012.94
2023-02-02T09:09:36.732Z,1012.97
2023-02-02T09:10:36.925Z,1012.98
2023-02-02T09:11:36.701Z,1012.93
2023-02-02T09:12:36.672Z,1013.01
2023-02-02T09:13:36.678Z,1012.98
2023-02-02T09:14:36.691Z,1013.03
2023-02-02T09:15:36.662Z,1013.02
2023-02-02T09:16:36.629Z,1013.11
2023-02-02T09:17:36.641Z,1013.10
2023-02-02T09:18:36.609Z,1013.12
2023-02-02T09:19:36.631Z,1013.12
2023-02-02T09:20:36.599Z,1013.09
2023-02-02T09:21:36.604Z,1013.11
2023-02-02T09:22:36.583Z,1013.12
2023-02-02T09:23:36.575Z,1013.14
2023-02-02T09:24:36.568Z,1013.18
2023-02-02T09:25:36.605Z,1013.18
2023-02-02T09:26:36.596Z,1013.16
2023-02-02T09:27:36.537Z,1013.17
2023-02-02T09:28:38.947Z,1013.22
2023-02-02T09:29:36.513Z,1013.22
2023-02-02T09:30:36.495Z,1013.22
2023-02-02T09:31:36.570Z,1013.20
2023-02-02T09:32:36.453Z,1013.19
2023-02-02T09:33:36.468Z,1013.26
2023-02-02T09:34:36.434Z,1013.24
2023-02-02T09:35:36.432Z,1013.29
2023-02-02T09:36:36.422Z,1013.27
2023-02-02T09:37:47.856Z,1013.32
2023-02-02T09:38:38.189Z,1013.34
2023-02-02T09:39:38.113Z,1013.39
2023-02-02T09:40:36.391Z,1013.36
2023-02-02T09:41:36.381Z,1013.38
2023-02-02T09:42:36.353Z,1013.35
2023-02-02T09:43:36.373Z,1013.38
2023-02-02T09:44:36.347Z,1013.40
2023-02-02T09:45:36.411Z,1013.41
2023-02-02T09:46:36.315Z,1013.45
2023-02-02T09:47:36.323Z,1013.46
2023-02-02T09:48:36.286Z,1013.47
2023-02-02T09:49:36.309Z,1013.44
2023-02-02T09:50:36.290Z,1013.47
2023-02-02T09:51:36.287Z,1013.51
2023-02-02T09:52:36.245Z,1013.48
2023-02-02T09:53:38.472Z,1013.47
2023-02-02T09:54:37.229Z,1013.51
2023-02-02T09:55:36.218Z,1013.56
2023-02-02T09:56:36.248Z,1013.55
2023-02-02T09:57:36.218Z,1013.54
2023-02-02T09:58:36.187Z,1013.57
2023-02-02T09:59:36.373Z,1013.59
2023-02-02T10:00:36.166Z,1013.57
2023-02-02T10:01:36.207Z,1013.62
2023-02-02T10:02:36.134Z,1013.63
2023-02-02T10:03:36.179Z,1013.59
2023-02-02T10:04:36.162Z,1013.68
2023-02-02T10:05:36.113Z,1013.69
2023-02-02T10:06:36.111Z,1013.68
2023-02-02T10:07:36.117Z,1013.66
2023-02-02T10:08:36.070Z,1013.66
2023-02-02T10:09:36.071Z,1013.68
2023-02-02T10:10:36.053Z,1013.64
2023-02-02T10:11:36.050Z,1013.66
2023-02-02T10:12:36.351Z,1013.71
2023-02-02T10:13:36.033Z,1013.64
2023-02-02T10:14:36.101Z,1013.70
2023-02-02T10:15:36.078Z,1013.71
2023-02-02T10:16:36.009Z,1013.74
2023-02-02T10:17:35.992Z,1013.74
2023-02-02T10:18:35.968Z,1013.71
2023-02-02T10:19:35.975Z,1013.71
2023-02-02T10:20:35.978Z,1013.76
2023-02-02T10:21:35.939Z,1013.69
2023-02-02T10:22:35.936Z,1013.73
2023-02-02T10:23:35.952Z,1013.71
2023-02-02T10:24:35.903Z,1013.74
2023-02-02T10:25:35.912Z,1013.71
2023-02-02T10:26:35.919Z,1013.73
2023-02-02T10:27:35.878Z,1013.74
2023-02-02T10:28:35.881Z,1013.76
2023-02-02T10:29:48.573Z,1013.74
2023-02-02T10:30:36.865Z,1013.76
2023-02-02T10:31:35.989Z,1013.81
2023-02-02T10:32:35.815Z,1013.84
2023-02-02T10:33:35.834Z,1013.81
2023-02-02T10:34:35.808Z,1013.81
2023-02-02T10:35:35.819Z,1013.78
2023-02-02T10:36:35.770Z,1013.80
2023-02-02T10:37:35.774Z,1013.84
2023-02-02T10:38:36.796Z,1013.80
2023-02-02T10:39:35.769Z,1013.77
2023-02-02T10:40:35.737Z,1013.85
2023-02-02T10:41:35.755Z,1013.79
2023-02-02T10:42:35.725Z,1013.82
2023-02-02T10:43:35.719Z,1013.84
2023-02-02T10:44:35.748Z,1013.86
2023-02-02T10:45:35.704Z,1013.87
2023-02-02T10:46:35.775Z,1013.90
2023-02-02T10:47:35.688Z,1013.94
2023-02-02T10:48:35.788Z,1013.95
2023-02-02T10:49:35.745Z,1013.95
2023-02-02T10:50:35.680Z,1013.94
2023-02-02T10:51:35.635Z,1013.98
2023-02-02T10:52:35.613Z,1013.85
2023-02-02T10:53:35.605Z,1014.00
2023-02-02T10:54:50.089Z,1014.02
2023-02-02T10:55:36.618Z,1013.90
2023-02-02T10:56:35.582Z,1014.02
2023-02-02T10:57:35.565Z,1013.95
2023-02-02T10:58:35.545Z,1013.98
2023-02-02T10:59:35.521Z,1014.01
2023-02-02T11:00:35.759Z,1013.99
2023-02-02T11:01:35.524Z,1013.97
2023-02-02T11:02:35.510Z,1014.01
2023-02-02T11:03:35.495Z,1013.96
2023-02-02T11:04:36.422Z,1013.96
2023-02-02T11:05:35.475Z,1013.96
2023-02-02T11:06:35.446Z,1014.03
2023-02-02T11:07:35.472Z,1013.93
2023-02-02T11:08:35.434Z,1013.98
2023-02-02T11:09:35.455Z,1014.02
2023-02-02T11:10:35.404Z,1014.01
2023-02-02T11:11:35.423Z,1014.06
2023-02-02T11:12:35.398Z,1014.02
2023-02-02T11:13:35.407Z,1013.96
2023-02-02T11:14:44.542Z,1013.95
2023-02-02T11:15:36.387Z,1013.99
2023-02-02T11:16:43.188Z,1014.01
2023-02-02T11:17:36.356Z,1014.04
2023-02-02T11:18:35.334Z,1014.05
2023-02-02T11:19:35.347Z,1014.05
2023-02-02T11:20:35.327Z,1014.05
2023-02-02T11:21:35.303Z,1013.97
2023-02-02T11:22:35.312Z,1014.02
2023-02-02T11:23:35.286Z,1014.02
2023-02-02T11:24:35.267Z,1014.00
2023-02-02T11:25:35.270Z,1013.99
2023-02-02T11:26:35.244Z,1014.06
2023-02-02T11:27:35.250Z,1014.06
2023-02-02T11:28:35.221Z,1014.05
2023-02-02T11:29:35.217Z,1014.04
2023-02-02T11:30:35.236Z,1014.06
2023-02-02T11:31:35.413Z,1014.07
2023-02-02T11:32:35.170Z,1014.09
2023-02-02T11:33:35.180Z,1014.12
2023-02-02T11:34:35.156Z,1014.04
2023-02-02T11:35:35.152Z,1014.03
2023-02-02T11:36:35.126Z,1014.09
2023-02-02T11:37:35.134Z,1014.09
2023-02-02T11:38:35.104Z,1014.09
2023-02-02T11:39:35.108Z,1014.14
2023-02-02T11:40:35.090Z,1014.14
2023-02-02T11:41:35.074Z,1014.25
2023-02-02T11:42:35.091Z,1014.17
2023-02-02T11:43:35.095Z,1014.22
2023-02-02T11:44:35.063Z,1014.16
2023-02-02T11:45:35.038Z,1014.15
2023-02-02T11:46:35.107Z,1014.17
2023-02-02T11:47:35.019Z,1014.16
2023-02-02T11:48:35.006Z,1014.18
2023-02-02T11:49:34.990Z,1014.19
2023-02-02T11:50:34.961Z,1014.18
2023-02-02T11:51:34.968Z,1014.11
2023-02-02T11:52:34.964Z,1014.17
2023-02-02T11:53:35.008Z,1014.17
2023-02-02T11:54:34.952Z,1014.15
2023-02-02T11:55:34.948Z,1014.15
2023-02-02T11:56:34.923Z,1014.14
2023-02-02T11:57:35.008Z,1014.12
2023-02-02T11:58:34.903Z,1014.11
2023-02-02T11:59:34.903Z,1014.16
2023-02-02T12:00:34.882Z,1014.11
2023-02-02T12:01:34.865Z,1014.15
2023-02-02T12:02:35.165Z,1014.11
2023-02-02T12:03:34.883Z,1014.17
2023-02-02T12:04:34.833Z,1014.09
2023-02-02T12:05:34.872Z,1014.20